Time;durP1;ratioP1;P1;durP2;ratioP2;P2;SDS_P1;SDS_P2;PMS_P1;PMS_P2;Temp;Humidity;BMP_temperature;BMP_pressure;BME280_temperature;BME280_humidity;BME280_pressure;Samples;Min_cycle;Max_cycle;Signal;HPM_P1;HPM_P2
2023/09/13 00:01:10;;;;;;;6.57;4.90;;;;;;;;;;4988921;28;20816;-59
2023/09/13 00:03:36;;;;;;;7.17;5.50;;;;;;;;;;4981018;28;20418;-58
2023/09/13 00:06:01;;;;;;;9.10;5.40;;;;;;;;;;4981864;28;20402;-59
2023/09/13 00:08:27;;;;;;;7.07;5.07;;;;;;;;;;4982209;28;20788;-58
2023/09/13 00:10:52;;;;;;;7.47;5.25;;;;;;;;;;4982696;28;20474;-58
2023/09/13 00:13:18;;;;;;;5.70;4.60;;;;;;;;;;4995635;28;20507;-58
2023/09/13 00:15:44;;;;;;;5.93;4.35;;;;;;;;;;4993837;28;20414;-58
2023/09/13 00:18:09;;;;;;;5.75;4.30;;;;;;;;;;4987759;28;20511;-58
2023/09/13 00:20:35;;;;;;;6.30;4.90;;;;;;;;;;4989027;28;21051;-58
2023/09/13 00:23:00;;;;;;;5.63;4.10;;;;;;;;;;4991712;28;20956;-59
2023/09/13 00:25:25;;;;;;;7.05;4.30;;;;;;;;;;4989249;28;20409;-58
2023/09/13 00:27:51;;;;;;;6.00;4.60;;;;;;;;;;4983843;28;20412;-58
2023/09/13 00:30:16;;;;;;;6.10;4.57;;;;;;;;;;4983494;28;20426;-58
2023/09/13 00:32:41;;;;;;;7.18;4.45;;;;;;;;;;4987728;28;20407;-58
2023/09/13 00:35:07;;;;;;;7.07;4.63;;;;;;;;;;4991634;28;21024;-58
2023/09/13 00:37:32;;;;;;;6.47;4.80;;;;;;;;;;4992565;28;20580;-58
2023/09/13 00:39:57;;;;;;;5.93;4.33;;;;;;;;;;4996595;28;20501;-58
2023/09/13 00:42:23;;;;;;;6.23;4.50;;;;;;;;;;4990222;28;20410;-58
2023/09/13 00:44:48;;;;;;;7.37;4.70;;;;;;;;;;4991582;28;20449;-58
2023/09/13 00:47:13;;;;;;;6.23;4.50;;;;;;;;;;4994932;28;20410;-58
2023/09/13 00:49:38;;;;;;;7.43;4.68;;;;;;;;;;4993565;28;20778;-58
2023/09/13 00:52:04;;;;;;;6.43;4.57;;;;;;;;;;4983761;28;21060;-59
2023/09/13 00:54:29;;;;;;;6.23;4.60;;;;;;;;;;4986883;28;20402;-58
2023/09/13 00:56:55;;;;;;;8.17;5.60;;;;;;;;;;5003661;28;20399;-58
2023/09/13 00:59:21;;;;;;;6.60;4.50;;;;;;;;;;5010426;28;20409;-58
2023/09/13 01:01:47;;;;;;;8.18;5.25;;;;;;;;;;5025182;28;20502;-58
2023/09/13 01:04:12;;;;;;;7.73;4.77;;;;;;;;;;5013306;28;20830;-58
2023/09/13 01:06:37;;;;;;;7.53;5.23;;;;;;;;;;4993207;28;20410;-58
2023/09/13 01:09:04;;;;;;;7.53;4.60;;;;;;;;;;4993455;28;20489;-59
2023/09/13 01:11:29;;;;;;;6.80;4.70;;;;;;;;;;4993001;28;20894;-58
2023/09/13 01:13:54;;;;;;;7.10;5.53;;;;;;;;;;4992626;28;20412;-58
2023/09/13 01:16:27;;;;;;;6.80;5.00;;;;;;;;;;4993049;28;20737;-58
2023/09/13 01:19:01;;;;;;;6.67;4.90;;;;;;;;;;4991355;28;20402;-58
2023/09/13 01:21:43;;;;;;;8.47;5.27;;;;;;;;;;5012669;28;20874;-58
2023/09/13 01:24:20;;;;;;;9.00;6.30;;;;;;;;;;5011373;28;20412;-58
2023/09/13 01:26:57;;;;;;;9.00;7.38;;;;;;;;;;5012236;28;21300;-58
2023/09/13 01:29:23;;;;;;;9.32;6.97;;;;;;;;;;5021428;28;20373;-59
2023/09/13 01:31:48;;;;;;;8.80;5.97;;;;;;;;;;5050378;28;20394;-58
2023/09/13 01:34:13;;;;;;;9.77;5.97;;;;;;;;;;5011576;28;20459;-58
2023/09/13 01:36:39;;;;;;;9.90;5.93;;;;;;;;;;5012632;28;20397;-58
2023/09/13 01:39:04;;;;;;;7.77;6.10;;;;;;;;;;5012208;28;20488;-59
2023/09/13 01:41:38;;;;;;;9.40;6.88;;;;;;;;;;5010693;28;20883;-58
2023/09/13 01:44:03;;;;;;;10.10;7.05;;;;;;;;;;5021319;28;20890;-59
2023/09/13 01:46:31;;;;;;;7.47;6.33;;;;;;;;;;5032462;28;20430;-58
2023/09/13 01:48:56;;;;;;;9.73;6.50;;;;;;;;;;5030178;28;20411;-58
2023/09/13 01:51:23;;;;;;;7.78;6.00;;;;;;;;;;5031954;28;20437;-59
2023/09/13 01:53:49;;;;;;;8.35;6.45;;;;;;;;;;5031564;28;20506;-58
2023/09/13 01:56:14;;;;;;;8.77;7.23;;;;;;;;;;5032122;28;20941;-59
2023/09/13 01:58:39;;;;;;;9.80;7.43;;;;;;;;;;5041670;28;20810;-58
2023/09/13 02:01:04;;;;;;;9.85;8.02;;;;;;;;;;5040086;28;20403;-58
2023/09/13 02:03:30;;;;;;;9.15;6.72;;;;;;;;;;5038410;28;20397;-58
2023/09/13 02:05:55;;;;;;;12.18;8.85;;;;;;;;;;5033208;28;20500;-58
2023/09/13 02:08:20;;;;;;;9.70;7.87;;;;;;;;;;5038347;28;20484;-58
2023/09/13 02:10:46;;;;;;;12.35;9.70;;;;;;;;;;5042549;28;20401;-58
2023/09/13 02:13:12;;;;;;;12.48;9.25;;;;;;;;;;5042163;28;20413;-59
2023/09/13 02:15:39;;;;;;;10.18;8.10;;;;;;;;;;5043733;28;20397;-58
2023/09/13 02:18:05;;;;;;;11.68;8.82;;;;;;;;;;5043583;28;20409;-59
2023/09/13 02:20:30;;;;;;;11.77;8.27;;;;;;;;;;5040123;28;20393;-58
2023/09/13 02:22:55;;;;;;;10.83;8.57;;;;;;;;;;5044147;28;20576;-58
2023/09/13 02:25:20;;;;;;;11.13;8.77;;;;;;;;;;5044663;28;20378;-58
2023/09/13 02:27:46;;;;;;;11.23;8.80;;;;;;;;;;5040823;28;20409;-58
2023/09/13 02:30:11;;;;;;;17.33;12.10;;;;;;;;;;5042759;28;20410;-59
2023/09/13 02:32:36;;;;;;;13.43;11.53;;;;;;;;;;5036282;28;20917;-59
2023/09/13 02:35:02;;;;;;;12.50;11.20;;;;;;;;;;5035075;28;20407;-60
2023/09/13 02:37:28;;;;;;;12.80;10.57;;;;;;;;;;5039269;28;20399;-59
2023/09/13 02:39:53;;;;;;;14.77;12.20;;;;;;;;;;5029899;28;20800;-59
2023/09/13 02:42:18;;;;;;;12.85;10.70;;;;;;;;;;5036352;28;20464;-59
2023/09/13 02:44:43;;;;;;;11.27;9.97;;;;;;;;;;5030246;28;20457;-59
2023/09/13 02:47:09;;;;;;;14.20;11.37;;;;;;;;;;5028194;28;20409;-59
2023/09/13 02:49:34;;;;;;;14.67;11.40;;;;;;;;;;5024142;28;20410;-59
2023/09/13 02:51:59;;;;;;;13.23;10.23;;;;;;;;;;5023705;28;20414;-58
2023/09/13 02:54:25;;;;;;;12.37;10.10;;;;;;;;;;5019058;28;20402;-59
2023/09/13 02:56:50;;;;;;;12.77;10.37;;;;;;;;;;5024732;28;20497;-58
2023/09/13 02:59:16;;;;;;;12.47;9.60;;;;;;;;;;5023161;28;20970;-58
2023/09/13 03:01:42;;;;;;;13.00;10.37;;;;;;;;;;5020904;28;20413;-59
2023/09/13 03:04:07;;;;;;;14.07;10.50;;;;;;;;;;5021053;28;20447;-59
2023/09/13 03:06:33;;;;;;;12.15;10.10;;;;;;;;;;5016074;28;20969;-58
2023/09/13 03:08:59;;;;;;;14.73;10.85;;;;;;;;;;4990017;28;20521;-58
2023/09/13 03:11:24;;;;;;;12.85;10.32;;;;;;;;;;4990542;28;20399;-58
2023/09/13 03:13:50;;;;;;;14.13;10.70;;;;;;;;;;4981963;28;20432;-58
2023/09/13 03:16:15;;;;;;;13.30;10.93;;;;;;;;;;4988018;28;20414;-58
2023/09/13 03:18:41;;;;;;;13.20;10.40;;;;;;;;;;4985799;28;20698;-58
2023/09/13 03:21:08;;;;;;;14.10;12.13;;;;;;;;;;5009972;28;20407;-59
2023/09/13 03:23:33;;;;;;;13.80;10.85;;;;;;;;;;4977945;28;20782;-58
2023/09/13 03:25:58;;;;;;;13.80;11.00;;;;;;;;;;4996428;28;21220;-58
2023/09/13 03:28:24;;;;;;;17.03;11.53;;;;;;;;;;4991686;28;20482;-58
2023/09/13 03:30:49;;;;;;;13.83;11.33;;;;;;;;;;4991961;28;21461;-58
2023/09/13 03:33:14;;;;;;;13.17;10.27;;;;;;;;;;4987318;28;20450;-59
2023/09/13 03:35:39;;;;;;;13.47;10.67;;;;;;;;;;4991460;28;20398;-58
2023/09/13 03:38:05;;;;;;;12.83;10.53;;;;;;;;;;4990489;28;20426;-58
2023/09/13 03:40:30;;;;;;;13.47;10.90;;;;;;;;;;4988676;28;20468;-58
2023/09/13 03:42:55;;;;;;;12.37;9.73;;;;;;;;;;4988969;28;20977;-58
2023/09/13 03:45:20;;;;;;;13.60;10.07;;;;;;;;;;4987830;28;20445;-58
2023/09/13 03:47:46;;;;;;;12.47;9.97;;;;;;;;;;4982049;28;20452;-59
2023/09/13 03:50:11;;;;;;;12.13;9.77;;;;;;;;;;4980493;28;20456;-59
2023/09/13 03:52:36;;;;;;;14.13;10.10;;;;;;;;;;4989094;28;20410;-58
2023/09/13 03:55:02;;;;;;;11.87;10.03;;;;;;;;;;4989621;28;20420;-59
2023/09/13 03:57:28;;;;;;;13.32;10.18;;;;;;;;;;4989199;28;20777;-58
2023/09/13 03:59:53;;;;;;;11.33;9.67;;;;;;;;;;4991283;28;20416;-58
2023/09/13 04:02:19;;;;;;;13.07;10.10;;;;;;;;;;4993855;28;20423;-59
2023/09/13 04:04:44;;;;;;;12.10;9.70;;;;;;;;;;4987312;28;20771;-58
2023/09/13 04:07:09;;;;;;;10.40;9.27;;;;;;;;;;4985751;28;20604;-58
2023/09/13 04:09:34;;;;;;;13.17;9.57;;;;;;;;;;4985226;28;20398;-58
2023/09/13 04:12:00;;;;;;;14.03;9.53;;;;;;;;;;4981939;28;20931;-58
2023/09/13 04:14:25;;;;;;;11.67;9.70;;;;;;;;;;4980942;28;20465;-58
2023/09/13 04:16:50;;;;;;;11.90;10.07;;;;;;;;;;4992019;28;20514;-58
2023/09/13 04:19:16;;;;;;;13.10;10.10;;;;;;;;;;4989209;28;20502;-58
2023/09/13 04:21:41;;;;;;;11.77;9.53;;;;;;;;;;4987175;28;20403;-58
2023/09/13 04:24:06;;;;;;;14.30;11.30;;;;;;;;;;4988199;28;20540;-58
2023/09/13 04:26:32;;;;;;;12.27;10.20;;;;;;;;;;4994480;28;20395;-58
2023/09/13 04:28:57;;;;;;;12.53;10.40;;;;;;;;;;4987807;28;20501;-58
2023/09/13 04:31:22;;;;;;;13.03;10.23;;;;;;;;;;4980703;28;21014;-58
2023/09/13 04:33:48;;;;;;;14.27;10.73;;;;;;;;;;4983697;28;20499;-58
2023/09/13 04:36:13;;;;;;;12.63;10.05;;;;;;;;;;4984876;28;20802;-58
2023/09/13 04:38:39;;;;;;;12.57;9.90;;;;;;;;;;4987782;28;20691;-58
2023/09/13 04:41:09;;;;;;;13.17;10.07;;;;;;;;;;4989418;28;20411;-59
2023/09/13 04:43:35;;;;;;;15.43;11.38;;;;;;;;;;4992272;28;20412;-58
2023/09/13 04:46:00;;;;;;;12.10;10.60;;;;;;;;;;4988402;28;20410;-58
2023/09/13 04:48:25;;;;;;;16.47;12.00;;;;;;;;;;4989047;28;20485;-58
2023/09/13 04:50:51;;;;;;;14.33;11.57;;;;;;;;;;4989745;28;20418;-58
2023/09/13 04:53:16;;;;;;;13.83;11.30;;;;;;;;;;4982770;28;20406;-58
2023/09/13 04:55:42;;;;;;;13.63;11.43;;;;;;;;;;4980963;28;20399;-58
2023/09/13 04:58:07;;;;;;;14.38;12.02;;;;;;;;;;4982907;28;20509;-59
2023/09/13 05:00:32;;;;;;;15.57;12.37;;;;;;;;;;4993773;28;20901;-58
2023/09/13 05:02:57;;;;;;;18.27;13.90;;;;;;;;;;5013592;28;20513;-58
2023/09/13 05:05:23;;;;;;;20.60;14.93;;;;;;;;;;5025184;28;20904;-57
2023/09/13 05:07:48;;;;;;;24.20;18.53;;;;;;;;;;5013504;28;20987;-57
2023/09/13 05:10:13;;;;;;;28.23;19.40;;;;;;;;;;5019926;28;20406;-57
2023/09/13 05:12:39;;;;;;;28.90;21.10;;;;;;;;;;5026626;28;20410;-58
2023/09/13 05:15:04;;;;;;;28.57;22.97;;;;;;;;;;5031323;28;20399;-58
2023/09/13 05:17:30;;;;;;;26.37;21.00;;;;;;;;;;5001953;28;20386;-58
2023/09/13 05:19:55;;;;;;;36.07;27.27;;;;;;;;;;4992518;28;20457;-58
2023/09/13 05:22:20;;;;;;;36.38;28.23;;;;;;;;;;4992213;28;20391;-58
2023/09/13 05:24:45;;;;;;;34.05;26.27;;;;;;;;;;4996418;28;20415;-58
2023/09/13 05:27:11;;;;;;;35.80;27.83;;;;;;;;;;5004703;28;21054;-58
2023/09/13 05:29:36;;;;;;;36.75;27.08;;;;;;;;;;5012866;28;20404;-58
2023/09/13 05:32:02;;;;;;;32.67;26.47;;;;;;;;;;5011943;28;20495;-58
2023/09/13 05:34:27;;;;;;;30.63;25.20;;;;;;;;;;5012684;28;20396;-58
2023/09/13 05:36:52;;;;;;;37.30;28.57;;;;;;;;;;5012704;28;20403;-58
2023/09/13 05:39:18;;;;;;;34.57;27.10;;;;;;;;;;5011468;28;20401;-58
2023/09/13 05:41:43;;;;;;;32.63;25.83;;;;;;;;;;5012735;28;20452;-58
2023/09/13 05:44:09;;;;;;;33.53;26.50;;;;;;;;;;5012178;28;20399;-58
2023/09/13 05:46:34;;;;;;;35.85;27.65;;;;;;;;;;5011921;28;20480;-58
2023/09/13 05:49:00;;;;;;;34.33;27.50;;;;;;;;;;5012422;28;20483;-58
2023/09/13 05:51:26;;;;;;;34.60;27.27;;;;;;;;;;5031726;28;20388;-58
2023/09/13 05:53:51;;;;;;;39.10;29.58;;;;;;;;;;5031337;28;20423;-58
2023/09/13 05:56:16;;;;;;;33.90;26.57;;;;;;;;;;5031760;28;20419;-58
2023/09/13 05:58:43;;;;;;;34.47;26.73;;;;;;;;;;5032030;28;20398;-58
2023/09/13 06:01:08;;;;;;;36.07;27.13;;;;;;;;;;5033005;28;20772;-58
2023/09/13 06:03:33;;;;;;;34.90;25.77;;;;;;;;;;5018799;28;20444;-58
2023/09/13 06:05:59;;;;;;;36.30;26.87;;;;;;;;;;5017932;28;20427;-58
2023/09/13 06:08:24;;;;;;;36.40;26.43;;;;;;;;;;5010394;28;20411;-58
2023/09/13 06:10:49;;;;;;;34.80;25.20;;;;;;;;;;5012045;28;20417;-58
2023/09/13 06:13:15;;;;;;;33.20;25.87;;;;;;;;;;5016061;28;20941;-58
2023/09/13 06:15:40;;;;;;;33.03;25.10;;;;;;;;;;5024781;28;20395;-57
2023/09/13 06:18:06;;;;;;;34.67;25.30;;;;;;;;;;5022150;28;20410;-58
2023/09/13 06:20:31;;;;;;;31.13;24.33;;;;;;;;;;5020030;28;20454;-58
2023/09/13 06:22:56;;;;;;;30.97;24.07;;;;;;;;;;5019055;28;20423;-58
2023/09/13 06:25:22;;;;;;;30.63;23.57;;;;;;;;;;5022603;28;20395;-58
2023/09/13 06:27:47;;;;;;;32.83;24.98;;;;;;;;;;5023600;28;20755;-58
2023/09/13 06:30:13;;;;;;;31.38;23.40;;;;;;;;;;5023216;28;20410;-58
2023/09/13 06:32:39;;;;;;;33.10;24.63;;;;;;;;;;5031562;28;20461;-58
2023/09/13 06:35:04;;;;;;;29.13;24.13;;;;;;;;;;5030285;28;20889;-58
2023/09/13 06:37:30;;;;;;;32.17;25.17;;;;;;;;;;5031396;28;20387;-58
2023/09/13 06:39:55;;;;;;;28.87;23.23;;;;;;;;;;5031467;28;20754;-58
2023/09/13 06:42:20;;;;;;;31.90;23.88;;;;;;;;;;5030293;28;20410;-58
2023/09/13 06:44:46;;;;;;;31.60;24.53;;;;;;;;;;5022834;28;20412;-57
2023/09/13 06:47:11;;;;;;;31.50;23.47;;;;;;;;;;5011000;28;20834;-58
2023/09/13 06:49:36;;;;;;;30.33;22.87;;;;;;;;;;5018420;28;20393;-58
2023/09/13 06:52:02;;;;;;;31.90;24.23;;;;;;;;;;5019209;28;20397;-58
2023/09/13 06:54:27;;;;;;;29.03;20.83;;;;;;;;;;5022837;28;20402;-58
2023/09/13 06:56:52;;;;;;;26.07;20.60;;;;;;;;;;5022204;28;20976;-58
2023/09/13 06:59:19;;;;;;;34.00;22.77;;;;;;;;;;5019890;28;20487;-58
2023/09/13 07:01:45;;;;;;;30.40;22.73;;;;;;;;;;5019185;28;20783;-58
2023/09/13 07:04:10;;;;;;;36.85;24.75;;;;;;;;;;5026906;28;20462;-58
2023/09/13 07:06:35;;;;;;;14.03;9.23;;;;;;;;;;5037007;28;20473;-58
2023/09/13 07:09:00;;;;;;;7.40;3.87;;;;;;;;;;5035493;28;20411;-59
2023/09/13 07:11:26;;;;;;;7.73;3.10;;;;;;;;;;5029990;28;20459;-58
2023/09/13 07:13:51;;;;;;;4.57;1.90;;;;;;;;;;5023175;28;20417;-58
2023/09/13 07:16:16;;;;;;;3.50;1.13;;;;;;;;;;5033356;28;20407;-58
2023/09/13 07:18:42;;;;;;;3.13;1.20;;;;;;;;;;5025022;28;20771;-58
2023/09/13 07:21:07;;;;;;;2.70;1.10;;;;;;;;;;5024376;28;20426;-58
2023/09/13 07:23:33;;;;;;;3.13;0.90;;;;;;;;;;5032283;28;20414;-58
2023/09/13 07:25:59;;;;;;;3.60;1.10;;;;;;;;;;5022033;28;20475;-58
2023/09/13 07:28:24;;;;;;;3.53;0.90;;;;;;;;;;5021198;28;20406;-58
2023/09/13 07:30:49;;;;;;;2.50;0.90;;;;;;;;;;5030356;28;20403;-57
2023/09/13 07:33:15;;;;;;;2.00;0.70;;;;;;;;;;5022055;28;20411;-57
2023/09/13 07:35:40;;;;;;;2.80;0.90;;;;;;;;;;5033232;28;20789;-57
2023/09/13 07:38:05;;;;;;;3.13;0.80;;;;;;;;;;5026484;28;20407;-57
2023/09/13 07:40:31;;;;;;;3.67;0.90;;;;;;;;;;5022653;28;21299;-58
2023/09/13 07:42:56;;;;;;;2.50;0.70;;;;;;;;;;5023258;28;20426;-58
2023/09/13 07:45:21;;;;;;;3.08;0.90;;;;;;;;;;5019347;28;20391;-58
2023/09/13 07:47:47;;;;;;;2.08;0.68;;;;;;;;;;5021314;28;20594;-57
2023/09/13 07:50:28;;;;;;;3.67;0.93;;;;;;;;;;5022980;28;20416;-58
2023/09/13 07:52:54;;;;;;;2.63;0.80;;;;;;;;;;5009642;28;20858;-57
2023/09/13 07:55:19;;;;;;;3.07;0.90;;;;;;;;;;5015281;28;20953;-58
2023/09/13 07:57:44;;;;;;;2.40;0.80;;;;;;;;;;5019504;28;20406;-58
2023/09/13 08:00:10;;;;;;;2.30;0.90;;;;;;;;;;5019718;28;20420;-58
2023/09/13 08:02:35;;;;;;;2.30;0.70;;;;;;;;;;5024682;28;20422;-58
2023/09/13 08:05:01;;;;;;;2.17;0.70;;;;;;;;;;5022640;28;20828;-59
2023/09/13 08:07:27;;;;;;;2.63;0.80;;;;;;;;;;5019902;28;20413;-57
2023/09/13 08:09:52;;;;;;;2.30;0.70;;;;;;;;;;5012248;28;20405;-57
2023/09/13 08:12:17;;;;;;;2.33;0.80;;;;;;;;;;5013749;28;20411;-57
2023/09/13 08:14:43;;;;;;;1.77;0.60;;;;;;;;;;5016736;28;20403;-58
2023/09/13 08:17:09;;;;;;;1.97;0.70;;;;;;;;;;5020961;28;20770;-57
2023/09/13 08:19:34;;;;;;;1.50;0.60;;;;;;;;;;5027245;28;20416;-58
2023/09/13 08:21:59;;;;;;;1.70;0.60;;;;;;;;;;5022104;28;20431;-58
2023/09/13 08:24:25;;;;;;;2.72;0.70;;;;;;;;;;5013792;28;20482;-57
2023/09/13 08:26:50;;;;;;;1.37;0.60;;;;;;;;;;5010779;28;20397;-57
2023/09/13 08:29:15;;;;;;;2.00;0.60;;;;;;;;;;5011899;28;20837;-57
2023/09/13 08:31:41;;;;;;;2.00;0.60;;;;;;;;;;5014823;28;20839;-57
2023/09/13 08:34:06;;;;;;;1.80;0.60;;;;;;;;;;5019014;28;20416;-58
2023/09/13 08:36:33;;;;;;;1.88;0.60;;;;;;;;;;5008702;28;20436;-57
2023/09/13 08:38:58;;;;;;;1.67;0.60;;;;;;;;;;5026136;28;20416;-57
2023/09/13 08:41:24;;;;;;;1.50;0.70;;;;;;;;;;5038599;28;20405;-57
2023/09/13 08:43:49;;;;;;;2.80;0.80;;;;;;;;;;5032155;28;20426;-57
2023/09/13 08:46:15;;;;;;;2.60;0.60;;;;;;;;;;5039588;28;20409;-57
2023/09/13 08:48:40;;;;;;;2.53;0.80;;;;;;;;;;5041660;28;20411;-56
2023/09/13 08:51:06;;;;;;;2.47;0.70;;;;;;;;;;5028817;28;20778;-57
2023/09/13 08:53:31;;;;;;;1.63;0.60;;;;;;;;;;5035038;28;20411;-57
2023/09/13 08:55:56;;;;;;;3.63;0.80;;;;;;;;;;5024711;28;20414;-57
2023/09/13 08:58:22;;;;;;;2.80;0.80;;;;;;;;;;5021122;28;20451;-57
2023/09/13 09:00:48;;;;;;;4.27;1.00;;;;;;;;;;5025278;28;20503;-57
2023/09/13 09:03:13;;;;;;;2.60;1.00;;;;;;;;;;5021026;28;20426;-57
2023/09/13 09:05:38;;;;;;;2.80;1.00;;;;;;;;;;5023203;28;20407;-57
2023/09/13 09:08:04;;;;;;;2.00;0.80;;;;;;;;;;5025779;28;20418;-57
2023/09/13 09:10:30;;;;;;;2.50;0.80;;;;;;;;;;5024621;28;20403;-57
2023/09/13 09:12:56;;;;;;;2.40;0.80;;;;;;;;;;5021998;28;20399;-57
2023/09/13 09:15:22;;;;;;;3.28;1.00;;;;;;;;;;5025939;28;20422;-57
2023/09/13 09:17:48;;;;;;;3.42;1.13;;;;;;;;;;5021984;28;20391;-57
2023/09/13 09:20:13;;;;;;;3.07;1.00;;;;;;;;;;5018131;28;20422;-56
2023/09/13 09:22:39;;;;;;;2.90;0.90;;;;;;;;;;5021569;28;20418;-57
2023/09/13 09:25:08;;;;;;;3.08;0.90;;;;;;;;;;5024734;28;20439;-57
2023/09/13 09:27:33;;;;;;;2.75;1.08;;;;;;;;;;5022735;28;20407;-57
2023/09/13 09:29:59;;;;;;;2.73;0.87;;;;;;;;;;5026256;28;20424;-57
2023/09/13 09:32:26;;;;;;;3.42;1.00;;;;;;;;;;5028017;28;20407;-57
2023/09/13 09:34:52;;;;;;;2.40;0.77;;;;;;;;;;5008138;28;20872;-57
2023/09/13 09:37:18;;;;;;;2.58;0.90;;;;;;;;;;5022475;28;20506;-57
2023/09/13 09:39:43;;;;;;;3.03;0.83;;;;;;;;;;5037074;28;20974;-57
2023/09/13 09:42:15;;;;;;;1.97;0.80;;;;;;;;;;5027583;28;20471;-57
2023/09/13 09:44:40;;;;;;;1.33;0.80;;;;;;;;;;5019677;28;20766;-56
2023/09/13 09:47:09;;;;;;;1.60;0.80;;;;;;;;;;5017924;28;20403;-57
2023/09/13 09:49:35;;;;;;;3.67;0.80;;;;;;;;;;5024876;28;20399;-57
2023/09/13 09:52:00;;;;;;;3.50;1.00;;;;;;;;;;5032740;28;20403;-57
2023/09/13 09:54:25;;;;;;;2.50;0.80;;;;;;;;;;5032097;28;20791;-57
2023/09/13 09:56:51;;;;;;;2.47;0.80;;;;;;;;;;5037143;28;20406;-57
2023/09/13 09:59:17;;;;;;;2.28;0.68;;;;;;;;;;5033016;28;20444;-57
2023/09/13 10:01:42;;;;;;;1.80;0.80;;;;;;;;;;5029674;28;20462;-57
2023/09/13 10:04:08;;;;;;;2.90;0.90;;;;;;;;;;5023428;28;20466;-57
2023/09/13 10:06:34;;;;;;;2.10;0.90;;;;;;;;;;5033644;28;20409;-57
2023/09/13 10:08:59;;;;;;;2.60;1.03;;;;;;;;;;5027415;28;20403;-57
2023/09/13 10:11:24;;;;;;;2.33;0.83;;;;;;;;;;5020953;28;20438;-57
2023/09/13 10:13:49;;;;;;;1.93;0.80;;;;;;;;;;5023756;28;20418;-57
2023/09/13 10:16:15;;;;;;;2.30;0.93;;;;;;;;;;5024561;28;20543;-57
2023/09/13 10:18:48;;;;;;;3.00;1.00;;;;;;;;;;5028336;28;20471;-57
2023/09/13 10:21:14;;;;;;;2.42;0.90;;;;;;;;;;5040189;28;20861;-57
2023/09/13 10:23:40;;;;;;;3.55;1.40;;;;;;;;;;5033396;28;20415;-57
2023/09/13 10:26:06;;;;;;;4.75;1.40;;;;;;;;;;5031018;28;20489;-58
2023/09/13 10:28:32;;;;;;;4.28;1.30;;;;;;;;;;5028454;28;20403;-57
2023/09/13 10:30:57;;;;;;;4.45;1.25;;;;;;;;;;5020411;28;20434;-57
2023/09/13 10:33:23;;;;;;;4.33;1.33;;;;;;;;;;5023865;28;20391;-57
2023/09/13 10:35:48;;;;;;;2.97;1.20;;;;;;;;;;5017545;28;20415;-57
2023/09/13 10:38:19;;;;;;;4.30;1.57;;;;;;;;;;5023243;28;20595;-57
2023/09/13 10:40:48;;;;;;;4.95;1.58;;;;;;;;;;5024006;28;20465;-57
2023/09/13 10:43:14;;;;;;;4.03;1.40;;;;;;;;;;5023189;28;20411;-57
2023/09/13 10:45:41;;;;;;;3.17;1.50;;;;;;;;;;5017240;28;20414;-57
2023/09/13 10:48:06;;;;;;;5.53;1.50;;;;;;;;;;5023604;28;20984;-57
2023/09/13 10:50:31;;;;;;;3.23;1.40;;;;;;;;;;5023021;28;20399;-57
2023/09/13 10:52:57;;;;;;;4.88;1.70;;;;;;;;;;5020608;28;20494;-57
2023/09/13 10:55:22;;;;;;;6.30;1.50;;;;;;;;;;5023032;28;20399;-57
2023/09/13 10:57:47;;;;;;;5.10;1.60;;;;;;;;;;5014370;28;20399;-57
2023/09/13 11:00:13;;;;;;;5.13;1.50;;;;;;;;;;5027585;28;20508;-57
2023/09/13 11:02:40;;;;;;;5.38;1.80;;;;;;;;;;5020585;28;20411;-57
2023/09/13 11:05:06;;;;;;;5.75;1.65;;;;;;;;;;5019087;28;20434;-57
2023/09/13 11:07:31;;;;;;;4.55;1.60;;;;;;;;;;5022011;28;20425;-56
2023/09/13 11:10:04;;;;;;;7.28;1.90;;;;;;;;;;5019885;28;20411;-57
2023/09/13 11:12:30;;;;;;;4.60;1.50;;;;;;;;;;5031016;28;21630;-57
2023/09/13 11:14:55;;;;;;;6.10;2.25;;;;;;;;;;5022107;28;20406;-57
2023/09/13 11:17:37;;;;;;;4.57;1.55;;;;;;;;;;5026219;28;20411;-57
2023/09/13 11:20:21;;;;;;;5.37;1.80;;;;;;;;;;5021362;28;20744;-57
2023/09/13 11:22:59;;;;;;;6.63;1.83;;;;;;;;;;5023169;28;20422;-56
2023/09/13 11:25:24;;;;;;;7.28;1.75;;;;;;;;;;5022068;28;20401;-56
2023/09/13 11:27:50;;;;;;;6.67;1.60;;;;;;;;;;5025220;28;20399;-56
2023/09/13 11:30:15;;;;;;;7.37;1.93;;;;;;;;;;5024048;28;20425;-56
2023/09/13 11:32:41;;;;;;;6.73;2.00;;;;;;;;;;5034740;28;20405;-57
2023/09/13 11:35:07;;;;;;;5.32;2.00;;;;;;;;;;5022329;28;20827;-57
2023/09/13 11:37:32;;;;;;;5.75;1.58;;;;;;;;;;5018656;28;20481;-57
2023/09/13 11:40:14;;;;;;;6.15;1.90;;;;;;;;;;5024034;28;20465;-56
2023/09/13 11:42:40;;;;;;;6.35;1.30;;;;;;;;;;5022826;28;20426;-56
2023/09/13 11:45:06;;;;;;;5.13;1.40;;;;;;;;;;5015815;28;20844;-57
2023/09/13 11:47:34;;;;;;;4.90;1.40;;;;;;;;;;5021325;28;20797;-56
2023/09/13 11:49:59;;;;;;;5.22;1.38;;;;;;;;;;5030521;28;20550;-56
2023/09/13 11:52:25;;;;;;;6.17;1.40;;;;;;;;;;5031609;28;20436;-57
2023/09/13 11:54:52;;;;;;;5.27;1.50;;;;;;;;;;5024165;28;21030;-57
2023/09/13 11:57:19;;;;;;;6.47;1.60;;;;;;;;;;5022648;28;20411;-57
2023/09/13 11:59:44;;;;;;;7.75;1.80;;;;;;;;;;5022667;28;20821;-57
2023/09/13 12:02:11;;;;;;;4.87;1.40;;;;;;;;;;5022970;28;20427;-57
2023/09/13 12:04:36;;;;;;;5.30;1.67;;;;;;;;;;5029503;28;20387;-57
2023/09/13 12:07:01;;;;;;;5.97;1.50;;;;;;;;;;5018058;28;21613;-57
2023/09/13 12:09:27;;;;;;;5.47;1.60;;;;;;;;;;5022693;28;20429;-57
2023/09/13 12:11:54;;;;;;;4.70;1.40;;;;;;;;;;5023159;28;20396;-57
2023/09/13 12:14:21;;;;;;;4.57;1.10;;;;;;;;;;5017624;28;20480;-56
2023/09/13 12:16:48;;;;;;;4.07;1.10;;;;;;;;;;5021818;28;20820;-56
2023/09/13 12:19:14;;;;;;;5.75;1.52;;;;;;;;;;5022340;28;20407;-57
2023/09/13 12:21:45;;;;;;;3.47;1.00;;;;;;;;;;5022273;28;20906;-56
2023/09/13 12:24:13;;;;;;;3.83;1.10;;;;;;;;;;5022709;28;20399;-57
2023/09/13 12:26:39;;;;;;;3.33;1.10;;;;;;;;;;5026627;28;20444;-57
2023/09/13 12:29:04;;;;;;;4.72;1.27;;;;;;;;;;5026380;28;20438;-57
2023/09/13 12:31:30;;;;;;;6.83;1.33;;;;;;;;;;5023115;28;20924;-57
2023/09/13 12:33:55;;;;;;;4.03;1.10;;;;;;;;;;5025373;28;20427;-57
2023/09/13 12:36:21;;;;;;;4.43;1.10;;;;;;;;;;5026942;28;20461;-57
2023/09/13 12:38:47;;;;;;;3.77;1.00;;;;;;;;;;5024853;28;20399;-57
2023/09/13 12:41:13;;;;;;;5.43;1.27;;;;;;;;;;5022892;28;20411;-57
2023/09/13 12:43:40;;;;;;;3.83;1.17;;;;;;;;;;5033928;28;20430;-57
2023/09/13 12:46:06;;;;;;;6.20;1.48;;;;;;;;;;5034965;28;20395;-57
2023/09/13 12:48:32;;;;;;;4.93;1.20;;;;;;;;;;5028504;28;20898;-57
2023/09/13 12:50:58;;;;;;;3.87;1.37;;;;;;;;;;5009899;28;20530;-57
2023/09/13 12:53:23;;;;;;;4.65;1.35;;;;;;;;;;5026376;28;20407;-57
2023/09/13 12:55:49;;;;;;;5.07;1.40;;;;;;;;;;5021546;28;20449;-57
2023/09/13 12:58:14;;;;;;;4.17;1.20;;;;;;;;;;5022407;28;20925;-57
2023/09/13 13:00:52;;;;;;;4.93;1.33;;;;;;;;;;5026574;28;20965;-57
2023/09/13 13:03:19;;;;;;;3.40;1.10;;;;;;;;;;5033048;28;20479;-57
2023/09/13 13:05:44;;;;;;;4.60;1.10;;;;;;;;;;5030208;28;20417;-57
2023/09/13 13:08:09;;;;;;;3.30;1.30;;;;;;;;;;5031961;28;20417;-57
2023/09/13 13:10:55;;;;;;;4.60;1.00;;;;;;;;;;5024806;28;20387;-57
2023/09/13 13:13:21;;;;;;;3.60;1.10;;;;;;;;;;5023270;28;21289;-57
2023/09/13 13:15:46;;;;;;;4.43;1.23;;;;;;;;;;5022994;28;20828;-56
2023/09/13 13:18:11;;;;;;;3.60;0.87;;;;;;;;;;5035281;28;20407;-57
2023/09/13 13:20:43;;;;;;;3.60;0.83;;;;;;;;;;5032003;28;20405;-56
2023/09/13 13:23:08;;;;;;;2.83;0.70;;;;;;;;;;5027895;28;20425;-57
2023/09/13 13:25:33;;;;;;;3.40;0.80;;;;;;;;;;5034225;28;20395;-56
2023/09/13 13:27:58;;;;;;;3.30;0.60;;;;;;;;;;5034410;28;20411;-57
2023/09/13 13:30:24;;;;;;;2.50;0.80;;;;;;;;;;5033471;28;20848;-56
2023/09/13 13:32:49;;;;;;;1.92;0.60;;;;;;;;;;5017430;28;20422;-56
2023/09/13 13:35:14;;;;;;;1.58;0.50;;;;;;;;;;5004969;28;21269;-56
2023/09/13 13:37:46;;;;;;;2.10;0.75;;;;;;;;;;5000030;28;20397;-56
2023/09/13 13:40:11;;;;;;;2.15;0.55;;;;;;;;;;5004017;28;20419;-56
2023/09/13 13:42:36;;;;;;;1.20;0.50;;;;;;;;;;5001483;28;20426;-56
2023/09/13 13:45:02;;;;;;;2.03;0.80;;;;;;;;;;4993818;28;20418;-56
2023/09/13 13:47:28;;;;;;;2.70;0.90;;;;;;;;;;4999709;28;20406;-56
2023/09/13 13:49:53;;;;;;;2.03;0.70;;;;;;;;;;5000147;28;20790;-57
2023/09/13 13:52:19;;;;;;;2.00;0.80;;;;;;;;;;5001317;28;20401;-57
2023/09/13 13:54:44;;;;;;;3.30;0.90;;;;;;;;;;5008743;28;20546;-57
2023/09/13 13:57:09;;;;;;;3.33;0.83;;;;;;;;;;4999987;28;20407;-57
2023/09/13 13:59:35;;;;;;;2.30;0.90;;;;;;;;;;4985612;28;20412;-57
2023/09/13 14:02:01;;;;;;;2.70;0.93;;;;;;;;;;4987040;28;20897;-57
2023/09/13 14:04:26;;;;;;;3.15;0.98;;;;;;;;;;4999953;28;20477;-57
2023/09/13 14:06:51;;;;;;;2.28;0.90;;;;;;;;;;4996195;28;20481;-56
2023/09/13 14:09:17;;;;;;;2.50;0.90;;;;;;;;;;4993709;28;20523;-57
2023/09/13 14:11:42;;;;;;;2.67;0.90;;;;;;;;;;4997928;28;20407;-57
2023/09/13 14:14:08;;;;;;;2.47;0.73;;;;;;;;;;4987772;28;20988;-57
2023/09/13 14:16:33;;;;;;;2.90;1.10;;;;;;;;;;4994434;28;20454;-57
2023/09/13 14:18:59;;;;;;;2.67;0.90;;;;;;;;;;4989555;28;20425;-57
2023/09/13 14:21:24;;;;;;;3.47;1.00;;;;;;;;;;4988009;28;20970;-57
2023/09/13 14:23:49;;;;;;;3.40;1.10;;;;;;;;;;4988232;28;20415;-57
2023/09/13 14:26:15;;;;;;;2.40;0.90;;;;;;;;;;4991296;28;20419;-57
2023/09/13 14:28:40;;;;;;;3.40;1.30;;;;;;;;;;4999878;28;20408;-58